Accueil
METAR-TAF:

METAR-TAF

Aéroports :

Base aérienne de Nörvenich

Nörvenich, Allemagne

latitude: 50-50N, longitude: 006-40E, altitude: 118 m

Observation

Le bulletin a été fait il y a 1 heure et 1 minutes, à 08:20 UTC
Vent 5 kt de nord-ouest
Température 8°C
Humidité 57%
Pression 1025 hPa
Visibilité 10 km ou plus
Quelques nuages à une hauteur de 5000 ft

METAR: ETNN 170820Z 32005KT 9999 FEW050 08/00 Q1025 BLU+

Heure: 11:21 (09:21 UTC)

Prévision

Le bulletin a été fait il y a 2 heures et 21 minutes, à 07:00 UTC
Prévision valable du 17 à 08 UTC au 17 à 17 UTC
Vent 8 kt de nord-ouest
Visibilité 10 km ou plus
Nuages épars à une hauteur de 5000 ft
Nuages épars à une hauteur de 10000 ft

TAF: ETNN 170700Z 1708/1717 32008KT 9999 NSW SCT050 SCT100 BY ETGL

Observations et prévisions météorologiques de plus de 4000 aéroports (messages METAR et TAF).

Les stations disponibles sont représentées par des disques jaunes et rouges sur la carte.

Passer la souris dessus pour voir le nom de la station.

Cliquer dessus pour voir les observations et prévisions météorologiques.

Pour changer de carte: cliquez sur les boutons verts avec une croix noire pour zoomer, sur le bouton vert avec un tiret pour effectuer un zoom arrière, ou sur les flèches vertes pour les cartes adjacentes.


METAR-TAF: